• Join FlightAware (Why Join?)
  • Login
  • US Flag 
01:35AM EDT


 

Airport Tracker/Info


-or-


 

Live Flight TrackerFlight Track Log ✈ EJA941 ✈ 14-Jan-2014 ✈ KTRM - KLAS

Flight Track Log - Related Links

Times and Time Zones

All times are in EST time to prevent confusion due to time zone crossing. See the EJA941 flight status page for this flight to view local times or setup timezone preferences in your user account.

Time Position Orientation Groundspeed Altitude Reporting Facility
EST Latitude Longitude Course Direction KTS MPH feet Rate Location/Type
02:00PM 33.6592 -116.1625 20° North 182 209 17,000  Level Los Angeles Center
02:01PM 33.6858 -116.2239 298° West 222 255 17,000 -3,660 Level Los Angeles Center
02:03PM 33.7464 -116.2292 356° North 270 311 9,500 -3,420 Descending Los Angeles Center
02:04PM 33.7450 -116.1322 91° East 298 343 10,000 240 Climbing Los Angeles Center
02:05PM 33.7350 -116.0303 97° East 306 352 10,100 1,500 Climbing Los Angeles Center
02:06PM 34.0864 -115.9756 20° North  Level Estimated
02:06PM 33.7572 -115.9456 72° East 297 342 13,100  Level Los Angeles Center
02:07PM 33.8192 -115.8817 41° Northeast 298 343 16,000 1,800 Climbing Los Angeles Center
02:08PM 33.8950 -115.7858 46° Northeast 330 380 16,900 420 Climbing Los Angeles Center
02:09PM 33.9556 -115.7108 46° Northeast 321 369 16,900  Level Los Angeles Center
02:10PM 34.0119 -115.6375 47° Northeast 303 349 16,900  Level Los Angeles Center
02:11PM 34.0739 -115.5647 44° Northeast 308 354 16,900  Level Los Angeles Center
02:12PM 34.1547 -115.5311 19° North 307 353 16,900  Level Los Angeles Center
02:13PM 34.2364 -115.5050 15° North 303 349 16,900  Level Los Angeles Center
02:14PM 34.3464 -115.4697 15° North 346 398 16,900  Level Los Angeles Center
02:15PM 34.4400 -115.4408 14° North 385 443 17,000  Climbing Los Angeles Center
02:16PM 34.5744 -115.3953 16° North 412 474 17,000  Level Los Angeles Center
02:17PM 34.6811 -115.3597 15° North 400 460 17,000  Level Los Angeles Center
02:18PM 34.7661 -115.3394 11° North 321 369 17,000  Level Los Angeles Center
02:19PM 34.8489 -115.3542 352° North 301 346 17,000  Level Los Angeles Center
02:20PM 34.9283 -115.3853 342° North 309 356 17,000  Level Los Angeles Center
02:21PM 35.0236 -115.4231 342° North 344 396 17,000  Level Los Angeles Center
02:22PM 35.1508 -115.4722 342° North 346 398 17,000  Level Los Angeles Center
02:23PM 35.2414 -115.5081 342° North 331 381 17,000  Level Los Angeles Center
02:24PM 35.3378 -115.5447 343° North 357 411 17,000  Level Los Angeles Center
02:25PM 35.3589 -115.5553 338° Northwest 356 410 17,000  Level Los Angeles Center
02:25PM 35.4228 -115.5789 343° North 348 400 17,000 -120 Level Los Angeles Center
02:26PM 35.4856 -115.6119 337° Northwest 334 384 16,900 -600 Descending Los Angeles Center
02:27PM 35.5086 -115.6314 326° Northwest 337 388 16,400 -1,500 Descending Los Angeles Center
02:27PM 35.5642 -115.6764 327° Northwest 336 387 15,400 -1,500 Descending Los Angeles Center
02:28PM 35.5869 -115.6944 327° Northwest 337 388 14,900 -1,620 Descending Los Angeles Center
02:28PM 35.6542 -115.7347 334° Northwest 300 345 13,500 -1,500 Descending Los Angeles Center
02:29PM 35.6589 -115.7303 37° Northeast 300 345 13,400 -540 Descending Los Angeles Center
02:29PM 35.6950 -115.6636 56° Northeast 285 328 13,000 -720 Descending Los Angeles Center
02:30PM 35.7047 -115.6331 69° East 287 330 12,700 -1,440 Descending Los Angeles Center
02:30PM 35.7267 -115.5792 63° Northeast 297 342 11,700 -1,560 Descending Los Angeles Center
02:31PM 35.7403 -115.5442 64° Northeast 290 334 11,100 -1,620 Descending Los Angeles Center
02:31PM 35.7625 -115.4856 65° Northeast 255 293 9,900 -1,800 Descending Los Angeles Center
02:32PM 35.7728 -115.4608 63° Northeast 256 295 9,300 -1,680 Descending Los Angeles Center
02:32PM 35.7906 -115.4156 64° Northeast 245 282 8,400 -1,560 Descending Los Angeles Center
02:33PM 35.8006 -115.3856 68° East 244 281 7,700 -1,560 Descending Los Angeles Center
02:33PM 35.8136 -115.3525 64° Northeast 218 251 7,000 -720 Descending Los Angeles Center
02:34PM 35.8244 -115.3122 72° East 217 250 7,000 60 Level Los Angeles Center
02:34PM 35.8517 -115.2978 23° Northeast 204 235 7,100 -120 Climbing Los Angeles Center
02:35PM 35.8764 -115.2850 23° Northeast 214 246 6,900 -900 Descending Los Angeles Center
02:35PM 35.9094 -115.2656 25° Northeast 202 232 6,100 -1,200 Descending Los Angeles Center
02:36PM 35.9269 -115.2550 26° Northeast 204 235 5,700 -1,200 Descending Los Angeles Center
02:36PM 35.9592 -115.2358 26° Northeast 198 228 4,900 -1,200 Descending Los Angeles Center
02:37PM 35.9792 -115.2253 23° Northeast 194 223 4,500 -1,020 Descending Los Angeles Center
02:37PM 36.0053 -115.2100 25° Northeast 180 207 3,900 -1,020 Descending Los Angeles Center
02:38PM 36.0233 -115.2000 24° Northeast 180 207 3,500 -1,020 Descending Los Angeles Center
02:38PM 36.0475 -115.1856 26° Northeast 148 170 2,900 -900 Descending Los Angeles Center
02:39PM 36.0619 -115.1772 25° Northeast 134 154 2,600 -540 Descending Los Angeles Center
02:40PM 36.0906 -115.1633 21° North 127 146 2,100 -540 Descending Los Angeles Center
02:42PM 36.0801 -115.1523 90° East  Level Estimated